Wetterdaten: Woche 22.05.06 - 28.05.06 (KW21)
Datum Zeit Temperatur Luftfeuchte Luftdruck Niederschlag Wind Richtung Sonne Solar Taupunkt Windchill
22.05.2006 00:00 10.2 C 95 % 1007.9 hPa 0.0 l/m 0.0 km/h (0 Bft) N 0.00 h 0 W/m 9.4 C 10.2 C
22.05.2006 01:00 9.4 C 98 % 1007.9 hPa 0.0 l/m 0.0 km/h (0 Bft) N 0.00 h 0 W/m 9.0 C 9.4 C
22.05.2006 02:00 9.0 C 99 % 1007.9 hPa 0.0 l/m 0.0 km/h (0 Bft) N 0.00 h 0 W/m 8.9 C 9.0 C
22.05.2006 03:00 8.5 C 100 % 1008.0 hPa 0.0 l/m 0.3 km/h (0 Bft) O-SO 0.00 h 0 W/m 8.4 C 8.4 C
22.05.2006 04:00 7.9 C 100 % 1007.2 hPa 0.0 l/m 0.2 km/h (0 Bft) O-SO 0.00 h 0 W/m 7.9 C 7.9 C
22.05.2006 05:00 7.7 C 100 % 1007.1 hPa 0.0 l/m 0.5 km/h (0 Bft) O-SO 0.07 h 9 W/m 7.7 C 7.6 C
22.05.2006 06:00 8.0 C 100 % 1006.8 hPa 0.0 l/m 0.0 km/h (0 Bft) N 0.20 h 64 W/m 7.9 C 8.0 C
22.05.2006 07:00 9.3 C 98 % 1005.9 hPa 0.0 l/m 0.0 km/h (0 Bft) N 1.00 h 270 W/m 9.0 C 9.3 C
22.05.2006 08:00 11.5 C 90 % 1005.5 hPa 0.0 l/m 0.1 km/h (0 Bft) N 0.93 h 396 W/m 9.9 C 11.5 C
22.05.2006 09:00 15.0 C 73 % 1005.1 hPa 0.0 l/m 0.3 km/h (0 Bft) W-NW 1.00 h 573 W/m 10.1 C 15.0 C
22.05.2006 10:00 18.4 C 59 % 1003.9 hPa 0.0 l/m 0.1 km/h (0 Bft) SO 0.60 h 515 W/m 10.1 C 18.4 C
22.05.2006 11:00 19.1 C 61 % 1004.2 hPa 0.0 l/m 2.8 km/h (1 Bft) SO 0.03 h 263 W/m 11.4 C 19.1 C
22.05.2006 12:00 20.4 C 56 % 1003.8 hPa 0.0 l/m 0.8 km/h (0 Bft) SO 0.33 h 440 W/m 11.2 C 20.4 C
22.05.2006 13:00 19.9 C 58 % 1003.6 hPa 0.0 l/m 0.6 km/h (0 Bft) SO 0.00 h 124 W/m 11.5 C 19.9 C
22.05.2006 14:00 20.0 C 57 % 1003.6 hPa 0.0 l/m 0.2 km/h (0 Bft) S-SO 0.00 h 185 W/m 11.1 C 20.0 C
22.05.2006 15:00 20.4 C 54 % 1003.9 hPa 0.0 l/m 0.4 km/h (0 Bft) O-NO 0.00 h 228 W/m 10.8 C 20.4 C
22.05.2006 16:00 17.6 C 57 % 1006.6 hPa 0.0 l/m 37.3 km/h (5 Bft) W-NW 0.17 h 245 W/m 9.0 C 17.6 C
22.05.2006 17:00 16.2 C 57 % 1008.0 hPa 0.0 l/m 44.0 km/h (6 Bft) NW 0.07 h 138 W/m 7.7 C 16.2 C
22.05.2006 18:00 13.7 C 74 % 1008.7 hPa 0.7 l/m 26.1 km/h (4 Bft) NW 0.00 h 32 W/m 9.1 C 13.7 C
22.05.2006 19:00 12.2 C 89 % 1010.1 hPa 1.0 l/m 3.4 km/h (1 Bft) W-NW 0.00 h 10 W/m 10.4 C 12.2 C
22.05.2006 20:00 11.5 C 94 % 1011.3 hPa 1.6 l/m 0.1 km/h (0 Bft) N 0.00 h 5 W/m 10.6 C 11.5 C
22.05.2006 21:00 11.1 C 98 % 1012.9 hPa 2.9 l/m 0.7 km/h (0 Bft) SO 0.00 h 0 W/m 10.7 C 11.1 C
22.05.2006 22:00 10.8 C 99 % 1014.3 hPa 3.3 l/m 3.3 km/h (1 Bft) SO 0.00 h 0 W/m 10.6 C 10.8 C
22.05.2006 23:00 10.6 C 99 % 1014.8 hPa 1.3 l/m 1.8 km/h (1 Bft) SO 0.00 h 0 W/m 10.5 C 10.6 C
23.05.2006 00:00 10.6 C 99 % 1015.0 hPa 0.7 l/m 4.3 km/h (1 Bft) S-SO 0.00 h 0 W/m 10.4 C 10.6 C
23.05.2006 01:00 10.6 C 98 % 1015.6 hPa 0.7 l/m 4.9 km/h (1 Bft) SW 0.00 h 0 W/m 10.3 C 10.6 C
23.05.2006 02:00 10.4 C 98 % 1016.0 hPa 0.0 l/m 1.1 km/h (1 Bft) S-SO 0.00 h 0 W/m 10.1 C 10.4 C
23.05.2006 03:00 10.4 C 98 % 1016.1 hPa 0.0 l/m 0.2 km/h (0 Bft) SW 0.00 h 0 W/m 10.1 C 10.4 C
23.05.2006 04:00 10.3 C 98 % 1016.2 hPa 0.0 l/m 0.2 km/h (0 Bft) SO 0.00 h 0 W/m 10.0 C 10.3 C
23.05.2006 05:00 10.2 C 97 % 1017.1 hPa 0.0 l/m 2.2 km/h (1 Bft) W-NW 0.00 h 1 W/m 9.7 C 10.2 C
23.05.2006 06:00 10.2 C 100 % 1017.4 hPa 0.0 l/m 7.5 km/h (2 Bft) W-NW 0.00 h 8 W/m 10.1 C 10.2 C
23.05.2006 07:00 10.6 C 83 % 1018.1 hPa 0.0 l/m 7.3 km/h (2 Bft) W-NW 0.00 h 59 W/m 7.9 C 10.6 C
23.05.2006 08:00 11.0 C 76 % 1018.8 hPa 0.0 l/m 10.7 km/h (2 Bft) NW 0.17 h 176 W/m 6.9 C 11.0 C
23.05.2006 09:00 11.9 C 64 % 1019.0 hPa 0.0 l/m 23.5 km/h (4 Bft) NW 0.73 h 494 W/m 5.2 C 11.9 C
23.05.2006 10:00 12.7 C 57 % 1019.7 hPa 0.0 l/m 15.6 km/h (3 Bft) W-NW 0.70 h 507 W/m 4.5 C 12.7 C
23.05.2006 11:00 13.2 C 55 % 1019.6 hPa 0.0 l/m 15.2 km/h (3 Bft) W-NW 0.30 h 454 W/m 4.4 C 13.2 C
23.05.2006 12:00 14.7 C 52 % 1019.5 hPa 0.0 l/m 15.7 km/h (3 Bft) W-NW 1.00 h 825 W/m 4.8 C 14.7 C
23.05.2006 13:00 15.4 C 47 % 1019.5 hPa 0.0 l/m 17.9 km/h (3 Bft) NW 0.93 h 711 W/m 4.0 C 15.4 C
23.05.2006 14:00 15.9 C 44 % 1019.5 hPa 0.0 l/m 20.3 km/h (4 Bft) NW 1.00 h 594 W/m 3.6 C 15.9 C
23.05.2006 15:00 16.3 C 41 % 1019.4 hPa 0.0 l/m 19.4 km/h (3 Bft) NW 1.00 h 568 W/m 3.1 C 16.3 C
23.05.2006 16:00 17.4 C 39 % 1018.4 hPa 0.0 l/m 22.5 km/h (4 Bft) NW 1.00 h 678 W/m 3.1 C 17.4 C
23.05.2006 17:00 17.9 C 36 % 1018.2 hPa 0.0 l/m 22.6 km/h (4 Bft) NW 1.00 h 590 W/m 2.7 C 17.9 C
23.05.2006 18:00 17.3 C 36 % 1018.3 hPa 0.0 l/m 15.1 km/h (3 Bft) NW 1.00 h 341 W/m 2.2 C 17.3 C
23.05.2006 19:00 16.3 C 37 % 1018.8 hPa 0.0 l/m 21.9 km/h (4 Bft) NW 0.97 h 223 W/m 1.4 C 16.3 C
23.05.2006 20:00 15.0 C 41 % 1019.6 hPa 0.0 l/m 14.7 km/h (3 Bft) NW 0.90 h 73 W/m 2.0 C 15.0 C
23.05.2006 21:00 13.8 C 47 % 1020.9 hPa 0.0 l/m 3.3 km/h (1 Bft) NW 0.00 h 7 W/m 2.6 C 13.8 C
23.05.2006 22:00 12.7 C 58 % 1022.0 hPa 0.0 l/m 0.0 km/h (0 Bft) N 0.00 h 0 W/m 4.8 C 12.7 C
23.05.2006 23:00 12.0 C 62 % 1022.9 hPa 0.0 l/m 0.0 km/h (0 Bft) N 0.00 h 0 W/m 5.0 C 12.0 C
24.05.2006 00:00 11.5 C 64 % 1023.2 hPa 0.0 l/m 0.0 km/h (0 Bft) N 0.00 h 0 W/m 4.8 C 11.5 C
24.05.2006 01:00 10.5 C 74 % 1023.3 hPa 0.0 l/m 0.2 km/h (0 Bft) O-SO 0.00 h 0 W/m 6.2 C 10.5 C
24.05.2006 02:00 9.8 C 79 % 1023.4 hPa 0.0 l/m 0.0 km/h (0 Bft) N 0.00 h 0 W/m 6.3 C 9.8 C
24.05.2006 03:00 8.7 C 81 % 1023.6 hPa 0.0 l/m 0.0 km/h (0 Bft) N 0.00 h 0 W/m 5.7 C 8.7 C
24.05.2006 04:00 7.6 C 84 % 1023.7 hPa 0.0 l/m 0.0 km/h (0 Bft) N 0.00 h 0 W/m 5.1 C 7.6 C
24.05.2006 05:00 6.4 C 91 % 1024.7 hPa 0.0 l/m 0.0 km/h (0 Bft) N 0.03 h 9 W/m 5.0 C 6.4 C
24.05.2006 06:00 6.4 C 92 % 1024.9 hPa 0.0 l/m 0.0 km/h (0 Bft) N 0.13 h 49 W/m 5.1 C 6.4 C
24.05.2006 07:00 7.3 C 84 % 1024.8 hPa 0.0 l/m 0.3 km/h (0 Bft) W-NW 0.90 h 221 W/m 4.9 C 7.3 C
24.05.2006 08:00 9.0 C 73 % 1024.6 hPa 0.0 l/m 0.0 km/h (0 Bft) N 0.87 h 380 W/m 4.4 C 9.0 C
24.05.2006 09:00 11.6 C 59 % 1024.2 hPa 0.0 l/m 0.0 km/h (0 Bft) N 0.90 h 517 W/m 3.8 C 11.6 C
24.05.2006 10:00 13.8 C 51 % 1023.7 hPa 0.0 l/m 0.4 km/h (0 Bft) SO 0.97 h 683 W/m 4.0 C 13.8 C
24.05.2006 11:00 15.1 C 46 % 1023.1 hPa 0.0 l/m 2.1 km/h (1 Bft) NW 0.70 h 662 W/m 3.5 C 15.1 C
24.05.2006 12:00 16.2 C 40 % 1022.6 hPa 0.0 l/m 8.9 km/h (2 Bft) W-NW 1.00 h 849 W/m 2.6 C 16.2 C
24.05.2006 13:00 16.9 C 40 % 1022.5 hPa 0.0 l/m 12.2 km/h (2 Bft) NW 1.00 h 860 W/m 3.2 C 16.9 C
24.05.2006 14:00 17.7 C 38 % 1021.9 hPa 0.0 l/m 15.0 km/h (3 Bft) NW 0.97 h 847 W/m 3.1 C 17.7 C
24.05.2006 15:00 18.4 C 37 % 1021.8 hPa 0.0 l/m 18.1 km/h (3 Bft) NW 0.93 h 745 W/m 3.3 C 18.4 C
24.05.2006 16:00 18.6 C 35 % 1021.2 hPa 0.0 l/m 19.5 km/h (3 Bft) NW 0.97 h 667 W/m 2.9 C 18.6 C
24.05.2006 17:00 18.3 C 33 % 1021.3 hPa 0.0 l/m 27.2 km/h (4 Bft) NW 1.00 h 525 W/m 1.9 C 18.3 C
24.05.2006 18:00 17.5 C 34 % 1021.4 hPa 0.0 l/m 22.3 km/h (4 Bft) NW 0.83 h 289 W/m 1.5 C 17.5 C
24.05.2006 19:00 16.1 C 36 % 1021.9 hPa 0.0 l/m 21.6 km/h (4 Bft) NW 0.27 h 131 W/m 0.9 C 16.1 C
24.05.2006 20:00 15.0 C 39 % 1022.7 hPa 0.0 l/m 17.1 km/h (3 Bft) NW 0.53 h 55 W/m 1.1 C 15.0 C
24.05.2006 21:00 13.1 C 45 % 1023.1 hPa 0.0 l/m 10.7 km/h (2 Bft) W-NW 0.00 h 6 W/m 1.5 C 13.1 C
24.05.2006 22:00 12.3 C 50 % 1024.1 hPa 0.0 l/m 5.7 km/h (1 Bft) NW 0.00 h 0 W/m 2.2 C 12.3 C
24.05.2006 23:00 11.8 C 55 % 1024.2 hPa 0.0 l/m 3.7 km/h (1 Bft) W-NW 0.00 h 0 W/m 3.0 C 11.8 C
25.05.2006 00:00 10.7 C 63 % 1024.3 hPa 0.0 l/m 0.8 km/h (0 Bft) O-SO 0.00 h 0 W/m 3.8 C 10.7 C
25.05.2006 01:00 10.6 C 65 % 1024.4 hPa 0.0 l/m 0.2 km/h (0 Bft) N 0.00 h 0 W/m 4.3 C 10.6 C
25.05.2006 02:00 9.6 C 73 % 1024.5 hPa 0.0 l/m 0.1 km/h (0 Bft) O-SO 0.00 h 0 W/m 4.9 C 9.6 C
25.05.2006 03:00 8.6 C 80 % 1023.6 hPa 0.0 l/m 0.2 km/h (0 Bft) O-SO 0.00 h 0 W/m 5.4 C 8.6 C
25.05.2006 04:00 8.2 C 85 % 1023.7 hPa 0.0 l/m 0.0 km/h (0 Bft) N 0.00 h 0 W/m 5.8 C 8.2 C
25.05.2006 05:00 7.8 C 89 % 1023.7 hPa 0.0 l/m 0.0 km/h (0 Bft) N 0.00 h 8 W/m 6.1 C 7.8 C
25.05.2006 06:00 7.5 C 90 % 1024.3 hPa 0.0 l/m 0.0 km/h (0 Bft) N 0.20 h 68 W/m 6.0 C 7.5 C
25.05.2006 07:00 8.8 C 85 % 1024.1 hPa 0.0 l/m 0.0 km/h (0 Bft) N 0.75 h 224 W/m 6.3 C 8.8 C
25.05.2006 08:00 11.4 C 66 % 1023.9 hPa 0.0 l/m 0.8 km/h (0 Bft) W 0.65 h 301 W/m 5.2 C 11.4 C
25.05.2006 09:00 13.3 C 55 % 1024.0 hPa 0.0 l/m 3.7 km/h (1 Bft) S-SW 0.43 h 319 W/m 4.5 C 13.3 C
25.05.2006 10:00 14.1 C 54 % 1023.2 hPa 0.0 l/m 1.4 km/h (1 Bft) S 0.13 h 339 W/m 5.0 C 14.1 C
25.05.2006 11:00 15.5 C 46 % 1022.7 hPa 0.0 l/m 9.2 km/h (2 Bft) W-NW 0.32 h 402 W/m 3.9 C 15.5 C
25.05.2006 12:00 15.4 C 45 % 1022.7 hPa 0.0 l/m 17.3 km/h (3 Bft) NW 0.00 h 323 W/m 3.5 C 15.4 C
25.05.2006 13:00 15.4 C 47 % 1022.7 hPa 0.0 l/m 20.2 km/h (4 Bft) NW 0.17 h 427 W/m 4.1 C 15.4 C
25.05.2006 14:00 15.2 C 48 % 1022.7 hPa 0.0 l/m 20.4 km/h (4 Bft) NW 0.10 h 278 W/m 4.2 C 15.2 C
25.05.2006 15:00 14.5 C 52 % 1022.8 hPa 0.0 l/m 27.4 km/h (4 Bft) NW 0.00 h 212 W/m 4.7 C 14.5 C
25.05.2006 16:00 14.2 C 58 % 1022.8 hPa 0.0 l/m 19.1 km/h (3 Bft) NW 0.00 h 259 W/m 6.0 C 14.2 C
25.05.2006 17:00 14.6 C 55 % 1022.8 hPa 0.0 l/m 14.5 km/h (3 Bft) NW 0.00 h 166 W/m 5.7 C 14.6 C
25.05.2006 18:00 14.2 C 57 % 1022.8 hPa 0.0 l/m 14.9 km/h (3 Bft) NW 0.00 h 63 W/m 5.9 C 14.2 C
25.05.2006 19:00 13.8 C 58 % 1022.9 hPa 0.0 l/m 11.3 km/h (2 Bft) NW 0.00 h 44 W/m 5.6 C 13.8 C
25.05.2006 20:00 13.5 C 61 % 1023.8 hPa 0.0 l/m 5.7 km/h (1 Bft) NW 0.37 h 44 W/m 6.1 C 13.5 C
25.05.2006 21:00 12.3 C 71 % 1023.9 hPa 0.0 l/m 0.5 km/h (0 Bft) W-NW 0.00 h 8 W/m 7.2 C 12.3 C
25.05.2006 22:00 11.1 C 78 % 1024.3 hPa 0.0 l/m 0.7 km/h (0 Bft) O-SO 0.00 h 0 W/m 7.5 C 11.1 C
25.05.2006 23:00 11.2 C 80 % 1024.3 hPa 0.0 l/m 0.9 km/h (0 Bft) O-SO 0.00 h 0 W/m 7.8 C 11.2 C
26.05.2006 00:00 11.5 C 81 % 1024.2 hPa 0.0 l/m 0.8 km/h (0 Bft) W-NW 0.00 h 0 W/m 8.4 C 11.5 C
26.05.2006 01:00 10.9 C 86 % 1024.3 hPa 0.0 l/m 2.3 km/h (1 Bft) O-SO 0.00 h 0 W/m 8.6 C 10.9 C
26.05.2006 02:00 11.6 C 84 % 1024.2 hPa 0.0 l/m 0.0 km/h (0 Bft) N 0.00 h 0 W/m 9.0 C 11.6 C
26.05.2006 03:00 12.8 C 80 % 1024.1 hPa 0.0 l/m 0.3 km/h (0 Bft) NW 0.00 h 0 W/m 9.4 C 12.8 C
26.05.2006 04:00 13.7 C 76 % 1023.9 hPa 0.0 l/m 3.2 km/h (1 Bft) W-NW 0.00 h 0 W/m 9.6 C 13.7 C
26.05.2006 05:00 13.3 C 76 % 1024.0 hPa 0.0 l/m 0.0 km/h (0 Bft) N 0.00 h 6 W/m 9.2 C 13.3 C
26.05.2006 06:00 14.3 C 69 % 1024.1 hPa 0.0 l/m 7.1 km/h (2 Bft) W-NW 0.00 h 29 W/m 8.8 C 14.3 C
26.05.2006 07:00 14.8 C 67 % 1024.8 hPa 0.0 l/m 10.7 km/h (2 Bft) W-NW 0.00 h 91 W/m 8.8 C 14.8 C
26.05.2006 08:00 15.3 C 65 % 1024.8 hPa 0.0 l/m 5.6 km/h (1 Bft) W-NW 0.00 h 129 W/m 8.8 C 15.3 C
26.05.2006 09:00 16.0 C 63 % 1024.7 hPa 0.0 l/m 13.4 km/h (3 Bft) NW 0.13 h 249 W/m 8.8 C 16.0 C
26.05.2006 10:00 17.4 C 58 % 1024.5 hPa 0.0 l/m 17.0 km/h (3 Bft) W-NW 0.90 h 627 W/m 8.9 C 17.4 C
26.05.2006 11:00 18.7 C 55 % 1024.0 hPa 0.0 l/m 16.2 km/h (3 Bft) W-NW 1.00 h 798 W/m 9.4 C 18.7 C
26.05.2006 12:00 19.7 C 53 % 1023.1 hPa 0.0 l/m 17.0 km/h (3 Bft) NW 1.00 h 808 W/m 9.8 C 19.7 C
26.05.2006 13:00 20.7 C 49 % 1023.0 hPa 0.0 l/m 15.1 km/h (3 Bft) NW 0.77 h 590 W/m 9.5 C 20.7 C
26.05.2006 14:00 20.4 C 49 % 1023.1 hPa 0.0 l/m 20.7 km/h (4 Bft) NW 0.33 h 404 W/m 9.2 C 20.4 C
26.05.2006 15:00 20.9 C 49 % 1023.0 hPa 0.0 l/m 24.3 km/h (4 Bft) NW 0.83 h 527 W/m 9.8 C 20.9 C
26.05.2006 16:00 21.6 C 49 % 1022.8 hPa 0.0 l/m 26.2 km/h (4 Bft) W-NW 0.73 h 488 W/m 10.3 C 21.6 C
26.05.2006 17:00 20.7 C 52 % 1023.0 hPa 0.0 l/m 29.2 km/h (5 Bft) NW 0.83 h 405 W/m 10.4 C 20.7 C
26.05.2006 18:00 20.0 C 52 % 1022.4 hPa 0.0 l/m 26.2 km/h (4 Bft) NW 0.33 h 201 W/m 9.8 C 20.0 C
26.05.2006 19:00 19.8 C 53 % 1022.1 hPa 0.0 l/m 15.7 km/h (3 Bft) W-NW 0.50 h 147 W/m 9.9 C 19.8 C
26.05.2006 20:00 18.9 C 57 % 1022.2 hPa 0.0 l/m 13.1 km/h (3 Bft) W-NW 0.00 h 17 W/m 10.1 C 18.9 C
26.05.2006 21:00 18.4 C 60 % 1022.5 hPa 0.0 l/m 16.5 km/h (3 Bft) W-NW 0.00 h 4 W/m 10.6 C 18.4 C
26.05.2006 22:00 18.4 C 61 % 1023.3 hPa 0.0 l/m 7.5 km/h (2 Bft) NW 0.00 h 0 W/m 10.7 C 18.4 C
26.05.2006 23:00 18.1 C 63 % 1023.4 hPa 0.0 l/m 1.4 km/h (1 Bft) W-NW 0.00 h 0 W/m 11.0 C 18.1 C
27.05.2006 00:00 17.2 C 73 % 1023.5 hPa 0.0 l/m 1.4 km/h (1 Bft) W 0.00 h 0 W/m 12.4 C 17.2 C
27.05.2006 01:00 16.2 C 87 % 1023.9 hPa 0.0 l/m 3.8 km/h (1 Bft) W-NW 0.00 h 0 W/m 14.0 C 16.2 C
27.05.2006 02:00 15.7 C 90 % 1024.1 hPa 0.3 l/m 0.4 km/h (0 Bft) W 0.00 h 0 W/m 14.0 C 15.7 C
27.05.2006 03:00 15.4 C 92 % 1023.7 hPa 0.7 l/m 2.2 km/h (1 Bft) W-NW 0.00 h 0 W/m 14.1 C 15.4 C
27.05.2006 04:00 15.7 C 94 % 1023.7 hPa 1.6 l/m 7.4 km/h (2 Bft) NW 0.00 h 0 W/m 14.7 C 15.7 C
27.05.2006 05:00 15.4 C 93 % 1024.3 hPa 0.3 l/m 5.9 km/h (2 Bft) W-NW 0.00 h 2 W/m 14.3 C 15.4 C
27.05.2006 06:00 15.2 C 97 % 1024.7 hPa 1.0 l/m 3.7 km/h (1 Bft) W-NW 0.00 h 13 W/m 14.7 C 15.2 C
27.05.2006 07:00 15.7 C 93 % 1024.8 hPa 0.0 l/m 14.3 km/h (3 Bft) W-NW 0.00 h 54 W/m 14.6 C 15.7 C
27.05.2006 08:00 16.2 C 88 % 1025.5 hPa 0.0 l/m 13.5 km/h (3 Bft) NW 0.07 h 127 W/m 14.3 C 16.2 C
27.05.2006 09:00 17.0 C 84 % 1025.6 hPa 0.0 l/m 7.3 km/h (2 Bft) W-NW 0.07 h 204 W/m 14.3 C 17.0 C
27.05.2006 10:00 17.6 C 81 % 1025.5 hPa 0.0 l/m 8.7 km/h (2 Bft) W-NW 0.07 h 283 W/m 14.3 C 17.6 C
27.05.2006 11:00 18.7 C 73 % 1025.3 hPa 0.0 l/m 15.9 km/h (3 Bft) W-NW 0.63 h 634 W/m 13.8 C 18.7 C
27.05.2006 12:00 18.9 C 73 % 1025.3 hPa 0.0 l/m 17.2 km/h (3 Bft) NW 0.40 h 562 W/m 13.8 C 18.9 C
27.05.2006 13:00 18.8 C 76 % 1025.2 hPa 0.3 l/m 15.4 km/h (3 Bft) W-NW 0.30 h 429 W/m 14.6 C 18.8 C
27.05.2006 14:00 19.6 C 69 % 1024.2 hPa 0.0 l/m 17.4 km/h (3 Bft) NW 0.27 h 389 W/m 13.8 C 19.6 C
27.05.2006 15:00 20.5 C 64 % 1023.6 hPa 0.0 l/m 19.5 km/h (3 Bft) NW 0.83 h 677 W/m 13.4 C 20.5 C
27.05.2006 16:00 21.2 C 61 % 1022.9 hPa 0.0 l/m 19.3 km/h (3 Bft) W-NW 0.40 h 406 W/m 13.3 C 21.2 C
27.05.2006 17:00 21.6 C 60 % 1022.7 hPa 0.0 l/m 21.5 km/h (4 Bft) NW 0.40 h 356 W/m 13.4 C 21.6 C
27.05.2006 18:00 20.8 C 61 % 1023.0 hPa 0.0 l/m 28.7 km/h (4 Bft) NW 0.27 h 180 W/m 13.0 C 20.8 C
27.05.2006 19:00 20.9 C 63 % 1022.6 hPa 0.0 l/m 23.0 km/h (4 Bft) NW 0.93 h 216 W/m 13.5 C 20.9 C
27.05.2006 20:00 19.9 C 70 % 1022.4 hPa 0.0 l/m 10.9 km/h (2 Bft) NW 0.50 h 60 W/m 14.2 C 19.9 C
27.05.2006 21:00 18.6 C 78 % 1022.8 hPa 0.0 l/m 12.0 km/h (2 Bft) W-NW 0.00 h 8 W/m 14.6 C 18.6 C
27.05.2006 22:00 17.7 C 84 % 1023.4 hPa 0.0 l/m 8.9 km/h (2 Bft) NW 0.00 h 0 W/m 14.9 C 17.7 C
27.05.2006 23:00 17.1 C 88 % 1023.5 hPa 0.0 l/m 4.6 km/h (1 Bft) NW 0.00 h 0 W/m 15.0 C 17.1 C
28.05.2006 00:00 16.8 C 85 % 1022.6 hPa 0.0 l/m 16.6 km/h (3 Bft) NW 0.00 h 0 W/m 14.3 C 16.8 C
28.05.2006 01:00 16.4 C 85 % 1022.5 hPa 0.0 l/m 9.0 km/h (2 Bft) W-NW 0.00 h 0 W/m 13.9 C 16.4 C
28.05.2006 02:00 16.7 C 81 % 1021.8 hPa 0.0 l/m 8.5 km/h (2 Bft) NW 0.00 h 0 W/m 13.5 C 16.7 C
28.05.2006 03:00 16.4 C 83 % 1020.8 hPa 0.0 l/m 1.8 km/h (1 Bft) W-NW 0.00 h 0 W/m 13.6 C 16.4 C
28.05.2006 04:00 15.9 C 85 % 1020.5 hPa 0.0 l/m 0.4 km/h (0 Bft) S-SO 0.00 h 0 W/m 13.3 C 15.9 C
28.05.2006 05:00 15.0 C 86 % 1020.6 hPa 0.0 l/m 1.6 km/h (1 Bft) SO 0.00 h 6 W/m 12.7 C 15.0 C
28.05.2006 06:00 15.7 C 79 % 1020.6 hPa 0.0 l/m 3.9 km/h (1 Bft) SO 0.00 h 25 W/m 12.0 C 15.7 C
28.05.2006 07:00 16.1 C 78 % 1020.0 hPa 0.0 l/m 0.2 km/h (0 Bft) W 0.00 h 71 W/m 12.2 C 16.1 C
28.05.2006 08:00 18.0 C 69 % 1019.2 hPa 0.0 l/m 17.0 km/h (3 Bft) W-NW 0.00 h 137 W/m 12.2 C 18.0 C
28.05.2006 09:00 19.0 C 66 % 1019.1 hPa 0.0 l/m 26.7 km/h (4 Bft) NW 0.10 h 218 W/m 12.5 C 19.0 C
28.05.2006 10:00 18.6 C 67 % 1019.1 hPa 0.0 l/m 30.3 km/h (5 Bft) NW 0.00 h 163 W/m 12.4 C 18.6 C
28.05.2006 11:00 17.4 C 77 % 1019.3 hPa 0.0 l/m 21.7 km/h (4 Bft) W-NW 0.00 h 90 W/m 13.3 C 17.4 C
28.05.2006 12:00 17.8 C 75 % 1019.2 hPa 0.0 l/m 24.5 km/h (4 Bft) W-NW 0.03 h 251 W/m 13.2 C 17.8 C
28.05.2006 13:00 17.2 C 82 % 1019.3 hPa 0.7 l/m 21.7 km/h (4 Bft) NW 0.13 h 286 W/m 14.0 C 17.2 C
28.05.2006 14:00 16.2 C 87 % 1019.4 hPa 0.3 l/m 24.5 km/h (4 Bft) NW 0.07 h 309 W/m 14.1 C 16.2 C
28.05.2006 15:00 15.7 C 90 % 1019.5 hPa 1.0 l/m 22.4 km/h (4 Bft) W-NW 0.17 h 339 W/m 14.0 C 15.7 C
28.05.2006 16:00 17.2 C 83 % 1019.3 hPa 0.0 l/m 21.2 km/h (4 Bft) W-NW 0.77 h 596 W/m 14.3 C 17.2 C
28.05.2006 17:00 16.5 C 83 % 1019.3 hPa 0.0 l/m 19.5 km/h (3 Bft) NW 0.43 h 270 W/m 13.5 C 16.5 C
28.05.2006 18:00 15.8 C 82 % 1018.5 hPa 0.0 l/m 14.3 km/h (3 Bft) W-NW 0.00 h 49 W/m 12.6 C 15.8 C
28.05.2006 19:00 15.7 C 81 % 1018.5 hPa 0.0 l/m 10.2 km/h (2 Bft) W-NW 0.00 h 20 W/m 12.4 C 15.7 C
28.05.2006 20:00 15.5 C 80 % 1018.5 hPa 0.0 l/m 8.3 km/h (2 Bft) W-NW 0.00 h 9 W/m 12.1 C 15.5 C
28.05.2006 21:00 15.3 C 80 % 1018.5 hPa 0.0 l/m 10.3 km/h (2 Bft) NW 0.00 h 1 W/m 11.9 C 15.3 C
28.05.2006 22:00 15.0 C 82 % 1018.7 hPa 0.0 l/m 3.1 km/h (1 Bft) W-NW 0.00 h 0 W/m 11.9 C 15.0 C
28.05.2006 23:00 14.7 C 83 % 1018.6 hPa 0.0 l/m 2.6 km/h (1 Bft) W-NW 0.00 h 0 W/m 11.8 C 14.7 C
Min-Datum _ 24.05.06 24.05.06 22.05.06 - 22.05.06 - - - 24.05.06 24.05.06
_ Min-Zeit 06:04 16:46 12:14 - 00:00 - - - 19:18 06:04
Minimum _ 5.9 C 33 % 1003.3 hPa - 0.0 km/h (0 Bft) - - - 0.3 C 5.9 C
Max-Datum _ 26.05.06 22.05.06 27.05.06 22.05.06 22.05.06 - 24.05.06 27.05.06 27.05.06 26.05.06
_ Max-Zeit 16:30 02:24 07:54 22:58 16:10 - 20:33 11:34 13:26 16:30
Maximum _ 22.6 C 100 % 1025.7 hPa 3.3 l/m 56.9 km/h
W-NW (7 Bft)
- 0.05 h 1030 W/m 16.0 C 22.6 C
Durchschnitt _ 14.7 C 70 % 1020.0 hPa #18.3 l/m 9.7 km/h (2 Bft) NW #44:25 h 284 W/m 8.7 C 14.7 C
© Kaiko 2006